createdAt,value
2019-05-25T00:00:11.601Z,64.90
2019-05-25T00:02:40.124Z,65.10
2019-05-25T00:05:09.817Z,65.10
2019-05-25T00:07:38.762Z,65.40
2019-05-25T00:10:07.935Z,65.60
2019-05-25T00:12:37.159Z,65.70
2019-05-25T00:15:09.246Z,66.00
2019-05-25T00:17:38.086Z,66.10
2019-05-25T00:20:07.171Z,66.40
2019-05-25T00:22:35.646Z,66.70
2019-05-25T00:25:06.342Z,66.80
2019-05-25T00:27:34.883Z,67.30
2019-05-25T00:30:04.300Z,67.30
2019-05-25T00:32:32.847Z,67.40
2019-05-25T00:35:01.405Z,68.30
2019-05-25T00:37:29.898Z,67.80
2019-05-25T00:39:58.365Z,68.90
2019-05-25T00:42:26.845Z,68.10
2019-05-25T00:44:55.353Z,68.10
2019-05-25T00:47:23.917Z,68.40
2019-05-25T00:49:52.379Z,68.10
2019-05-25T00:52:20.870Z,68.60
2019-05-25T00:54:49.351Z,68.60
2019-05-25T00:57:17.817Z,68.70
2019-05-25T00:59:46.509Z,69.00
2019-05-25T01:02:14.982Z,69.10
2019-05-25T01:04:43.460Z,69.30
2019-05-25T01:07:12.873Z,69.40
2019-05-25T01:09:41.359Z,69.60
2019-05-25T01:12:09.895Z,69.80
2019-05-25T01:14:38.391Z,69.90
2019-05-25T01:17:06.927Z,70.10
2019-05-25T01:19:35.583Z,69.80
2019-05-25T01:22:04.646Z,69.80
2019-05-25T01:24:44.080Z,70.00
2019-05-25T01:27:03.519Z,69.90
2019-05-25T01:29:32.022Z,70.10
2019-05-25T01:32:00.491Z,70.40
2019-05-25T01:34:30.319Z,70.60
2019-05-25T01:37:18.178Z,70.80
2019-05-25T01:39:46.744Z,70.90
2019-05-25T01:42:15.350Z,71.10
2019-05-25T01:44:43.895Z,71.30
2019-05-25T01:47:12.376Z,71.30
2019-05-25T01:49:40.856Z,71.60
2019-05-25T01:52:09.742Z,71.60
2019-05-25T01:54:38.222Z,71.80
2019-05-25T01:57:06.725Z,71.90
2019-05-25T01:59:35.261Z,71.90
2019-05-25T02:02:04.780Z,72.20
2019-05-25T02:04:33.338Z,72.20
2019-05-25T02:07:02.124Z,72.40
2019-05-25T02:09:30.590Z,72.40
2019-05-25T02:11:59.135Z,72.50
2019-05-25T02:14:27.647Z,72.50
2019-05-25T02:16:56.118Z,72.60
2019-05-25T02:19:26.584Z,72.60
2019-05-25T02:21:55.061Z,72.60
2019-05-25T02:24:23.554Z,72.70
2019-05-25T02:26:52.121Z,72.60
2019-05-25T02:29:20.848Z,72.70
2019-05-25T02:31:56.387Z,72.70
2019-05-25T02:34:25.302Z,72.90
2019-05-25T02:36:57.962Z,72.80
2019-05-25T02:39:28.411Z,72.90
2019-05-25T02:42:03.017Z,72.80
2019-05-25T02:44:39.602Z,72.90
2019-05-25T02:47:06.791Z,73.00
2019-05-25T02:49:39.202Z,73.10
2019-05-25T02:52:11.542Z,73.10
2019-05-25T02:54:59.045Z,73.10
2019-05-25T02:57:34.938Z,73.10
2019-05-25T03:00:15.823Z,73.10
2019-05-25T03:02:48.334Z,73.20
2019-05-25T03:05:18.412Z,73.30
2019-05-25T03:07:50.223Z,73.60
2019-05-25T03:10:20.755Z,73.70
2019-05-25T03:12:53.810Z,73.80
2019-05-25T03:15:28.114Z,73.90
2019-05-25T03:17:56.587Z,74.00
2019-05-25T03:20:25.094Z,75.00
2019-05-25T03:22:53.577Z,74.20
2019-05-25T03:25:22.063Z,74.30
2019-05-25T03:27:50.567Z,74.60
2019-05-25T03:30:37.051Z,74.80
2019-05-25T03:33:06.439Z,74.70
2019-05-25T03:35:35.091Z,74.70
2019-05-25T03:38:03.716Z,74.70
2019-05-25T03:40:32.282Z,75.00
2019-05-25T03:43:00.757Z,74.90
2019-05-25T03:45:29.325Z,75.00
2019-05-25T03:47:59.369Z,75.90
2019-05-25T03:50:27.871Z,75.00
2019-05-25T03:52:56.420Z,74.90
2019-05-25T03:55:25.314Z,74.80
2019-05-25T03:57:53.836Z,74.90
2019-05-25T04:00:37.148Z,74.90
2019-05-25T04:03:06.504Z,74.70
2019-05-25T04:05:35.261Z,75.50
2019-05-25T04:08:05.190Z,74.60
2019-05-25T04:10:33.751Z,74.60
2019-05-25T04:13:02.254Z,74.60
2019-05-25T04:15:30.822Z,74.70
2019-05-25T04:17:59.334Z,74.60
2019-05-25T04:20:27.867Z,74.60
2019-05-25T04:22:56.409Z,74.50
2019-05-25T04:25:25.048Z,74.50
2019-05-25T04:27:53.534Z,74.50
2019-05-25T04:30:22.957Z,74.70
2019-05-25T04:32:51.514Z,74.70
2019-05-25T04:35:20.018Z,74.80
2019-05-25T04:37:48.543Z,74.70
2019-05-25T04:40:17.378Z,74.70
2019-05-25T04:42:47.214Z,74.50
2019-05-25T04:45:16.000Z,73.50
2019-05-25T04:47:44.472Z,72.50
2019-05-25T04:50:14.015Z,71.90
2019-05-25T04:52:42.523Z,71.70
2019-05-25T04:55:12.533Z,71.80
2019-05-25T04:57:40.993Z,72.00
2019-05-25T05:00:10.274Z,71.80
2019-05-25T05:02:38.948Z,71.20
2019-05-25T05:05:08.550Z,71.30
2019-05-25T05:07:37.136Z,71.40
2019-05-25T05:10:09.886Z,71.00
2019-05-25T05:12:38.404Z,68.40
2019-05-25T05:15:07.923Z,64.90
2019-05-25T05:17:36.854Z,61.40
2019-05-25T05:20:07.730Z,59.00
2019-05-25T05:22:36.215Z,57.00
2019-05-25T05:25:06.230Z,56.20
2019-05-25T05:27:34.775Z,55.40
2019-05-25T05:30:03.600Z,54.70
2019-05-25T05:32:32.071Z,54.00
2019-05-25T05:35:00.555Z,53.00
2019-05-25T05:37:30.087Z,52.30
2019-05-25T05:39:59.300Z,51.90
2019-05-25T05:42:28.944Z,52.00
2019-05-25T05:44:59.276Z,51.60
2019-05-25T05:47:30.885Z,50.90
2019-05-25T05:50:04.888Z,50.70
2019-05-25T05:52:53.996Z,51.50
2019-05-25T05:55:32.884Z,51.80
2019-05-25T05:58:02.626Z,53.90
2019-05-25T06:00:35.405Z,55.30
2019-05-25T06:03:04.901Z,56.50
2019-05-25T06:05:33.657Z,57.80
2019-05-25T06:08:02.514Z,57.60
2019-05-25T06:10:31.013Z,58.30
2019-05-25T06:13:01.206Z,58.50
2019-05-25T06:15:29.699Z,56.40
2019-05-25T06:17:58.217Z,55.00
2019-05-25T06:20:26.866Z,54.10
2019-05-25T06:22:55.361Z,53.40
2019-05-25T06:25:23.923Z,54.90
2019-05-25T06:27:52.393Z,56.00
2019-05-25T06:30:21.934Z,57.10
2019-05-25T06:32:50.409Z,57.90
2019-05-25T06:35:19.142Z,58.80
2019-05-25T06:37:49.441Z,59.10
2019-05-25T06:40:18.528Z,59.10
2019-05-25T06:42:46.996Z,59.00
2019-05-25T06:45:18.991Z,58.30
2019-05-25T06:47:52.429Z,57.80
2019-05-25T06:50:22.366Z,57.20
2019-05-25T06:52:58.031Z,57.60
2019-05-25T06:55:26.535Z,57.60
2019-05-25T06:57:57.140Z,57.60
2019-05-25T07:00:26.140Z,57.40
2019-05-25T07:02:54.815Z,57.70
2019-05-25T07:05:23.357Z,58.00
2019-05-25T07:07:54.478Z,58.30
2019-05-25T07:10:22.552Z,58.80
2019-05-25T07:12:51.187Z,58.80
2019-05-25T07:15:21.351Z,58.50
2019-05-25T07:17:51.250Z,58.10
2019-05-25T07:20:20.321Z,58.20
2019-05-25T07:22:48.935Z,58.70
2019-05-25T07:25:20.175Z,58.40
2019-05-25T07:27:58.721Z,57.80
2019-05-25T07:30:19.627Z,57.30
2019-05-25T07:32:48.439Z,55.90
2019-05-25T07:35:18.549Z,52.30
2019-05-25T07:37:47.152Z,50.20
2019-05-25T07:40:15.964Z,50.70
2019-05-25T07:42:44.582Z,51.80
2019-05-25T07:45:14.760Z,52.70
2019-05-25T07:47:43.499Z,53.40
2019-05-25T07:50:13.231Z,54.40
2019-05-25T07:52:41.794Z,55.30
2019-05-25T07:55:11.031Z,56.00
2019-05-25T07:57:39.530Z,56.30
2019-05-25T08:00:09.403Z,56.30
2019-05-25T08:02:38.025Z,56.70
2019-05-25T08:05:08.195Z,56.70
2019-05-25T08:07:36.987Z,56.90
2019-05-25T08:10:06.926Z,57.10
2019-05-25T08:12:35.836Z,57.20
2019-05-25T08:15:06.091Z,57.30
2019-05-25T08:17:34.629Z,57.40
2019-05-25T08:20:04.715Z,57.50
2019-05-25T08:22:33.200Z,57.60
2019-05-25T08:25:01.737Z,57.80
2019-05-25T08:27:30.347Z,57.80
2019-05-25T08:29:58.833Z,57.90
2019-05-25T08:32:27.304Z,58.10
2019-05-25T08:34:55.807Z,58.00
2019-05-25T08:37:24.361Z,57.90
2019-05-25T08:39:52.858Z,58.10
2019-05-25T08:42:21.350Z,57.80
2019-05-25T08:44:49.894Z,57.80
2019-05-25T08:47:18.699Z,57.80
2019-05-25T08:49:51.361Z,57.80
2019-05-25T08:52:17.378Z,57.90
2019-05-25T08:54:45.899Z,58.00
2019-05-25T08:57:18.490Z,58.00
2019-05-25T08:59:44.590Z,58.20
2019-05-25T09:02:13.147Z,58.00
2019-05-25T09:04:41.753Z,58.20
2019-05-25T09:07:10.639Z,58.20
2019-05-25T09:09:39.259Z,58.10
2019-05-25T09:12:27.079Z,58.00
2019-05-25T09:14:55.860Z,57.80
2019-05-25T09:17:24.430Z,57.60
2019-05-25T09:19:52.981Z,57.40
2019-05-25T09:22:21.526Z,57.30
2019-05-25T09:24:50.006Z,57.20
2019-05-25T09:27:18.555Z,57.30
2019-05-25T09:29:47.024Z,57.10
2019-05-25T09:32:15.583Z,57.10
2019-05-25T09:34:44.055Z,57.10
2019-05-25T09:37:12.617Z,57.60
2019-05-25T09:39:41.241Z,57.20
2019-05-25T09:42:10.070Z,57.30
2019-05-25T09:44:38.628Z,57.20
2019-05-25T09:47:07.176Z,57.20
2019-05-25T09:49:36.146Z,57.20
2019-05-25T09:52:05.156Z,57.10
2019-05-25T09:54:33.640Z,56.90
2019-05-25T09:57:02.197Z,57.10
2019-05-25T09:59:30.726Z,57.10
2019-05-25T10:01:59.278Z,56.90
2019-05-25T10:04:27.950Z,56.40
2019-05-25T10:06:56.529Z,56.50
2019-05-25T10:09:29.822Z,56.00
2019-05-25T10:11:58.394Z,55.60
2019-05-25T10:14:26.858Z,55.20
2019-05-25T10:16:55.675Z,54.70
2019-05-25T10:19:24.182Z,54.30
2019-05-25T10:21:52.732Z,54.10
2019-05-25T10:24:21.263Z,53.60
2019-05-25T10:26:50.127Z,54.10
2019-05-25T10:29:18.643Z,53.70
2019-05-25T10:31:47.126Z,53.50
2019-05-25T10:34:15.624Z,53.30
2019-05-25T10:36:44.234Z,53.00
2019-05-25T10:39:12.712Z,53.80
2019-05-25T10:41:41.629Z,54.10
2019-05-25T10:44:10.093Z,53.50
2019-05-25T10:46:38.557Z,53.10
2019-05-25T10:49:07.047Z,52.30
2019-05-25T10:51:35.741Z,52.00
2019-05-25T10:54:04.675Z,51.70
2019-05-25T10:56:33.350Z,52.40
2019-05-25T10:59:01.851Z,52.10
2019-05-25T11:01:30.348Z,51.40
2019-05-25T11:03:58.972Z,50.60
2019-05-25T11:06:27.570Z,50.00
2019-05-25T11:08:56.043Z,50.20
2019-05-25T11:11:24.587Z,50.40
2019-05-25T11:13:53.083Z,50.00
2019-05-25T11:16:21.656Z,50.80
2019-05-25T11:18:50.139Z,50.40
2019-05-25T11:21:18.627Z,50.10
2019-05-25T11:23:47.777Z,49.60
2019-05-25T11:26:16.260Z,49.50
2019-05-25T11:28:44.824Z,49.80
2019-05-25T11:31:13.486Z,50.30
2019-05-25T11:33:42.028Z,50.00
2019-05-25T11:36:10.612Z,49.80
2019-05-25T11:38:39.083Z,49.80
2019-05-25T11:41:07.576Z,49.80
2019-05-25T11:43:36.131Z,49.60
2019-05-25T11:46:05.063Z,49.10
2019-05-25T11:48:33.612Z,48.80
2019-05-25T11:51:02.178Z,49.70
2019-05-25T11:53:30.638Z,49.20
2019-05-25T11:55:59.122Z,49.20
2019-05-25T11:58:28.497Z,49.10
2019-05-25T12:00:57.193Z,48.80
2019-05-25T12:03:26.106Z,48.30
2019-05-25T12:05:54.606Z,48.30
2019-05-25T12:08:23.188Z,48.20
2019-05-25T12:10:51.682Z,47.40
2019-05-25T12:13:20.227Z,46.90
2019-05-25T12:15:48.777Z,46.40
2019-05-25T12:18:17.263Z,46.10
2019-05-25T12:20:47.222Z,45.10
2019-05-25T12:23:15.776Z,44.90
2019-05-25T12:25:44.261Z,45.00
2019-05-25T12:28:12.745Z,45.20
2019-05-25T12:30:41.583Z,45.60
2019-05-25T12:33:10.387Z,45.60
2019-05-25T12:35:38.856Z,45.20
2019-05-25T12:38:07.754Z,45.20
2019-05-25T12:40:36.317Z,44.00
2019-05-25T12:43:04.922Z,44.20
2019-05-25T12:45:33.470Z,44.50
2019-05-25T12:48:01.960Z,43.70
2019-05-25T12:50:30.451Z,43.50
2019-05-25T12:52:59.005Z,43.00
2019-05-25T12:55:28.234Z,42.80
2019-05-25T12:57:57.031Z,43.10
2019-05-25T13:00:25.612Z,42.40
2019-05-25T13:02:54.097Z,42.90
2019-05-25T13:05:33.606Z,43.30
2019-05-25T13:07:52.966Z,42.90
2019-05-25T13:10:21.527Z,42.90
2019-05-25T13:12:50.007Z,43.20
2019-05-25T13:15:18.945Z,42.90
2019-05-25T13:17:47.419Z,43.00
2019-05-25T13:20:16.645Z,42.50
2019-05-25T13:22:52.686Z,42.60
2019-05-25T13:25:41.827Z,43.00
2019-05-25T13:28:10.390Z,43.10
2019-05-25T13:30:38.854Z,42.70
2019-05-25T13:33:07.591Z,42.70
2019-05-25T13:35:39.140Z,42.90
2019-05-25T13:38:07.713Z,43.30
2019-05-25T13:40:36.279Z,43.30
2019-05-25T13:43:06.498Z,43.20
2019-05-25T13:45:35.045Z,43.00
2019-05-25T13:48:03.538Z,42.80
2019-05-25T13:50:32.036Z,42.60
2019-05-25T13:53:00.506Z,42.70
2019-05-25T13:55:29.366Z,42.50
2019-05-25T13:57:57.871Z,42.80
2019-05-25T14:00:28.032Z,42.80
2019-05-25T14:02:58.215Z,42.80
2019-05-25T14:05:26.705Z,42.60
2019-05-25T14:07:55.189Z,42.70
2019-05-25T14:10:23.658Z,42.90
2019-05-25T14:12:52.164Z,43.00
2019-05-25T14:15:20.748Z,43.20
2019-05-25T14:17:52.528Z,43.10
2019-05-25T14:20:40.461Z,43.40
2019-05-25T14:23:08.985Z,43.20
2019-05-25T14:25:39.237Z,43.20
2019-05-25T14:28:12.162Z,43.20
2019-05-25T14:30:42.216Z,43.10
2019-05-25T14:33:15.611Z,43.20
2019-05-25T14:35:47.526Z,43.10
2019-05-25T14:38:17.650Z,42.90
2019-05-25T14:40:49.315Z,42.90
2019-05-25T14:43:17.786Z,43.20
2019-05-25T14:45:46.288Z,43.20
2019-05-25T14:48:14.752Z,43.60
2019-05-25T14:50:45.261Z,43.30
2019-05-25T14:53:13.848Z,43.50
2019-05-25T14:55:42.386Z,44.10
2019-05-25T14:58:12.925Z,43.90
2019-05-25T15:00:44.223Z,43.90
2019-05-25T15:03:16.967Z,43.80
2019-05-25T15:05:45.501Z,44.00
2019-05-25T15:08:18.555Z,44.00
2019-05-25T15:10:51.613Z,43.80
2019-05-25T15:13:20.380Z,43.80
2019-05-25T15:15:49.931Z,44.00
2019-05-25T15:18:21.312Z,44.00
2019-05-25T15:20:49.830Z,43.80
2019-05-25T15:23:18.363Z,43.80
2019-05-25T15:25:46.931Z,44.00
2019-05-25T15:28:15.515Z,44.00
2019-05-25T15:30:44.050Z,43.90
2019-05-25T15:33:12.529Z,44.40
2019-05-25T15:35:41.327Z,44.20
2019-05-25T15:38:09.884Z,44.30
2019-05-25T15:40:39.209Z,44.40
2019-05-25T15:43:07.891Z,44.50
2019-05-25T15:45:36.375Z,44.50
2019-05-25T15:48:05.305Z,44.60
2019-05-25T15:50:33.927Z,45.50
2019-05-25T15:53:02.441Z,44.70
2019-05-25T15:55:30.904Z,45.10
2019-05-25T15:57:59.390Z,45.10
2019-05-25T16:00:50.211Z,44.90
2019-05-25T16:03:20.428Z,44.80
2019-05-25T16:05:50.054Z,44.90
2019-05-25T16:08:19.965Z,44.50
2019-05-25T16:10:49.034Z,44.60
2019-05-25T16:13:18.098Z,44.80
2019-05-25T16:15:46.630Z,44.60
2019-05-25T16:18:15.135Z,44.90
2019-05-25T16:20:43.993Z,44.70
2019-05-25T16:23:12.476Z,44.90
2019-05-25T16:25:41.036Z,44.90
2019-05-25T16:28:09.531Z,44.80
2019-05-25T16:30:38.070Z,44.80
2019-05-25T16:33:12.811Z,44.90
2019-05-25T16:35:39.069Z,45.00
2019-05-25T16:38:07.720Z,45.10
2019-05-25T16:40:36.585Z,45.00
2019-05-25T16:43:08.278Z,45.10
2019-05-25T16:45:39.206Z,44.60
2019-05-25T16:48:09.553Z,44.70
2019-05-25T16:50:38.403Z,44.50
2019-05-25T16:53:08.577Z,44.60
2019-05-25T16:55:38.693Z,44.50
2019-05-25T16:58:08.943Z,44.50
2019-05-25T17:00:39.980Z,44.50
2019-05-25T17:03:26.523Z,44.70
2019-05-25T17:05:40.398Z,44.70
2019-05-25T17:08:09.323Z,44.40
2019-05-25T17:10:38.006Z,44.30
2019-05-25T17:13:06.494Z,44.20
2019-05-25T17:15:35.057Z,44.40
2019-05-25T17:18:05.331Z,44.20
2019-05-25T17:20:33.998Z,44.10
2019-05-25T17:23:02.957Z,44.50
2019-05-25T17:25:31.659Z,43.80
2019-05-25T17:28:00.156Z,44.50
2019-05-25T17:30:46.299Z,44.80
2019-05-25T17:33:15.334Z,45.30
2019-05-25T17:35:48.063Z,45.60
2019-05-25T17:38:18.405Z,45.90
2019-05-25T17:40:47.046Z,46.20
2019-05-25T17:43:15.670Z,46.40
2019-05-25T17:45:44.176Z,46.60
2019-05-25T17:48:12.714Z,46.50
2019-05-25T17:50:41.200Z,46.70
2019-05-25T17:53:09.767Z,47.00
2019-05-25T17:55:41.557Z,47.70
2019-05-25T17:58:10.096Z,47.40
2019-05-25T18:00:45.926Z,47.70
2019-05-25T18:03:14.851Z,48.00
2019-05-25T18:05:43.322Z,47.90
2019-05-25T18:08:12.442Z,48.20
2019-05-25T18:10:52.698Z,48.10
2019-05-25T18:13:11.734Z,48.10
2019-05-25T18:15:40.511Z,48.30
2019-05-25T18:18:09.128Z,48.40
2019-05-25T18:20:37.751Z,48.50
2019-05-25T18:23:07.903Z,48.80
2019-05-25T18:25:36.452Z,48.70
2019-05-25T18:28:06.041Z,48.80
2019-05-25T18:30:35.042Z,49.10
2019-05-25T18:33:04.340Z,49.40
2019-05-25T18:35:32.838Z,49.50
2019-05-25T18:38:05.584Z,49.50
2019-05-25T18:40:34.068Z,49.70
2019-05-25T18:43:02.753Z,49.70
2019-05-25T18:45:31.291Z,49.80
2019-05-25T18:47:59.781Z,49.80
2019-05-25T18:50:28.903Z,49.80
2019-05-25T18:52:57.392Z,50.00
2019-05-25T18:55:25.931Z,50.10
2019-05-25T18:57:54.413Z,50.20
2019-05-25T19:00:23.512Z,50.30
2019-05-25T19:02:52.911Z,50.40
2019-05-25T19:05:21.968Z,50.50
2019-05-25T19:07:50.534Z,50.60
2019-05-25T19:10:19.964Z,50.70
2019-05-25T19:12:48.506Z,50.90
2019-05-25T19:15:19.306Z,51.00
2019-05-25T19:17:47.804Z,51.10
2019-05-25T19:20:20.941Z,51.30
2019-05-25T19:22:53.252Z,51.40
2019-05-25T19:25:21.761Z,51.60
2019-05-25T19:27:54.413Z,51.80
2019-05-25T19:30:23.481Z,51.90
2019-05-25T19:32:52.531Z,52.00
2019-05-25T19:35:25.060Z,52.30
2019-05-25T19:37:57.991Z,52.70
2019-05-25T19:40:29.383Z,53.00
2019-05-25T19:43:01.635Z,53.30
2019-05-25T19:45:32.883Z,53.60
2019-05-25T19:48:01.727Z,53.90
2019-05-25T19:50:31.947Z,54.20
2019-05-25T19:53:18.041Z,54.30
2019-05-25T19:55:48.241Z,54.50
2019-05-25T19:58:21.256Z,54.70
2019-05-25T20:00:55.157Z,55.00
2019-05-25T20:03:25.251Z,55.10
2019-05-25T20:05:54.762Z,55.60
2019-05-25T20:08:26.419Z,55.70
2019-05-25T20:10:55.829Z,55.90
2019-05-25T20:13:27.473Z,56.20
2019-05-25T20:16:04.978Z,56.40
2019-05-25T20:18:36.490Z,56.70
2019-05-25T20:21:05.224Z,56.90
2019-05-25T20:23:33.726Z,57.00
2019-05-25T20:26:02.288Z,57.30
2019-05-25T20:28:33.670Z,57.60
2019-05-25T20:31:02.235Z,57.70
2019-05-25T20:33:34.984Z,57.80
2019-05-25T20:36:09.438Z,57.90
2019-05-25T20:38:40.891Z,58.00
2019-05-25T20:41:14.806Z,58.20
2019-05-25T20:43:44.784Z,58.40
2019-05-25T20:46:14.967Z,58.50
2019-05-25T20:48:47.102Z,58.80
2019-05-25T20:51:15.617Z,58.80
2019-05-25T20:53:44.142Z,58.90
2019-05-25T20:56:13.095Z,59.00
2019-05-25T20:58:41.675Z,59.30
2019-05-25T21:01:10.304Z,59.40
2019-05-25T21:03:38.858Z,59.60
2019-05-25T21:06:07.429Z,59.70
2019-05-25T21:08:35.997Z,59.90
2019-05-25T21:11:04.888Z,60.00
2019-05-25T21:13:33.382Z,60.10
2019-05-25T21:16:01.858Z,60.10
2019-05-25T21:18:30.346Z,60.10
2019-05-25T21:20:58.951Z,60.40
2019-05-25T21:23:27.420Z,60.50
2019-05-25T21:25:55.890Z,60.70
2019-05-25T21:28:24.472Z,61.00
2019-05-25T21:30:52.944Z,60.90
2019-05-25T21:33:21.415Z,60.90
2019-05-25T21:36:06.367Z,61.20
2019-05-25T21:38:20.145Z,61.10
2019-05-25T21:40:48.796Z,61.20
2019-05-25T21:43:17.338Z,61.30
2019-05-25T21:45:45.882Z,61.50
2019-05-25T21:48:14.579Z,61.50
2019-05-25T21:50:43.046Z,61.70
2019-05-25T21:53:11.630Z,61.90
2019-05-25T21:55:40.188Z,62.10
2019-05-25T21:58:09.057Z,62.40
2019-05-25T22:00:39.520Z,62.40
2019-05-25T22:03:08.076Z,62.60
2019-05-25T22:05:36.644Z,62.90
2019-05-25T22:08:07.684Z,63.10
2019-05-25T22:10:36.264Z,63.20
2019-05-25T22:13:04.827Z,63.00
2019-05-25T22:15:33.978Z,63.30
2019-05-25T22:18:04.445Z,63.50
2019-05-25T22:20:42.593Z,63.60
2019-05-25T22:23:08.768Z,63.90
2019-05-25T22:25:37.344Z,63.90
2019-05-25T22:28:06.050Z,64.20
2019-05-25T22:30:34.580Z,64.20
2019-05-25T22:33:03.167Z,64.40
2019-05-25T22:35:31.669Z,64.50
2019-05-25T22:38:00.230Z,64.60
2019-05-25T22:40:28.738Z,64.70
2019-05-25T22:42:57.701Z,64.90
2019-05-25T22:45:26.391Z,65.20
2019-05-25T22:47:54.971Z,65.50
2019-05-25T22:50:23.443Z,65.70
2019-05-25T22:52:51.932Z,65.80
2019-05-25T22:55:20.827Z,66.10
2019-05-25T22:57:49.383Z,66.30
2019-05-25T23:00:18.814Z,66.50
2019-05-25T23:02:48.964Z,66.70
2019-05-25T23:05:17.576Z,66.80
2019-05-25T23:07:46.091Z,66.90
2019-05-25T23:10:14.817Z,67.00
2019-05-25T23:12:43.752Z,67.20
2019-05-25T23:15:13.090Z,67.30
2019-05-25T23:17:41.663Z,67.40
2019-05-25T23:20:11.378Z,67.30
2019-05-25T23:22:39.858Z,67.40
2019-05-25T23:25:09.688Z,67.40
2019-05-25T23:27:38.177Z,67.60
2019-05-25T23:30:07.632Z,67.90
2019-05-25T23:32:36.342Z,68.10
2019-05-25T23:35:06.132Z,68.20
2019-05-25T23:37:34.603Z,68.30
2019-05-25T23:40:04.588Z,68.60
2019-05-25T23:42:33.151Z,68.60
2019-05-25T23:45:01.678Z,68.70
2019-05-25T23:47:30.175Z,68.80
2019-05-25T23:49:59.752Z,69.00
2019-05-25T23:52:28.567Z,69.00
2019-05-25T23:54:57.083Z,68.90
2019-05-25T23:57:25.638Z,68.60
2019-05-25T23:59:54.123Z,68.60
